Latest Weather Observations for Camooweal

IDD60801

Issued at 7:35 pm CST Monday 22 September 2014 (issued every 30 minutes, with the page automatically refreshed every 10 minutes)

About weather observations | Map of weather stations | Latest weather observations for NT | Other Formats
Station Details ID: 037010 Name: CAMOOWEAL TOWNSHIP Lat: -19.92 Lon: 138.12 Height: 231.2 m
Data from the previous 72 hours. | See also: Recent months at Camooweal
Date/Time
CST
Temp
°C
App
Temp
°C
Dew
Point
Rel
Hum
%
Delta-T
°C
Wind Press
QNH
hPa
Press
MSL
hPa
Rain
since 9 am
mm
Dir
 
Spd
km/h
Gust
km/h
Spd
kts
Gust
kts
22/07:30pm 22.7 18.3 -2.8 18 11.0 S 11 11 6 6 1014.3 1013.3 0.0
22/07:00pm 24.6 19.7 -3.7 15 12.2 S 13 17 7 9 1014.1 1013.1 0.0
22/06:30pm 26.1 20.4 -3.5 14 13.0 S 17 24 9 13 1013.7 1012.7 0.0
22/06:00pm 27.3 21.2 -3.5 13 13.7 S 19 26 10 14 1013.6 1012.6 0.0
22/05:30pm 28.3 23.0 -3.8 12 14.3 SSW 15 22 8 12 1013.6 1012.6 0.0
22/05:00pm 28.9 22.7 -4.5 11 14.8 S 19 22 10 12 1013.6 1012.6 0.0
22/04:30pm 28.8 23.8 -4.6 11 14.7 S 13 19 7 10 1013.7 1012.7 0.0
22/04:00pm 29.3 25.4 -4.2 11 14.9 SW 7 13 4 7 1013.6 1012.6 0.0
22/03:30pm 28.9 22.7 -4.5 11 14.8 SSW 19 28 10 15 1013.7 1012.7 0.0
22/03:00pm 29.3 25.4 -4.2 11 14.9 E 7 13 4 7 1013.6 1012.6 0.0
22/02:30pm 29.0 23.2 -4.4 11 14.8 SSW 17 28 9 15 1013.7 1012.7 0.0
22/02:00pm 29.0 23.6 -4.4 11 14.8 SE 15 24 8 13 1014.0 1013.0 0.0
22/01:30pm 29.2 23.6 -3.1 12 14.7 SSE 17 30 9 16 1014.4 1013.4 0.0
22/01:00pm 29.0 23.1 -2.2 13 14.4 SSE 19 26 10 14 1015.0 1014.0 0.0
22/12:30pm 28.3 22.2 -3.8 12 14.3 SE 19 33 10 18 1015.7 1014.6 0.0
22/12:00pm 27.2 20.6 -3.6 13 13.7 SSE 22 35 12 19 1016.4 1015.3 0.0
22/11:30am 27.3 20.7 -3.5 13 13.7 SSE 22 37 12 20 1017.0 1015.9 0.0
22/11:00am 26.5 19.4 -4.1 13 13.4 SSE 24 35 13 19 1017.6 1016.6 0.0
22/10:30am 25.7 19.5 -4.7 13 13.0 SSE 19 30 10 16 1018.2 1017.2 0.0
22/10:00am 25.3 19.2 -4.1 14 12.7 SSE 19 26 10 14 1018.6 1017.6 0.0
22/09:30am 23.5 17.2 -5.5 14 12.0 S 19 24 10 13 1018.7 1017.7 0.0
22/09:00am 21.8 16.6 -5.9 15 11.2 S 13 17 7 9 1019.0 1018.0 0.0
22/08:30am 20.1 14.1 -6.5 16 10.4 SSE 17 20 9 11 1018.9 1017.9 0.0
22/08:00am 18.8 12.4 -6.7 17 9.8 SSE 19 28 10 15 1018.7 1017.7 0.0
22/07:30am 17.0 10.0 -7.5 18 9.1 S 22 28 12 15 1018.3 1017.3 0.0
22/07:00am 12.2 8.2 -5.7 28 6.5 SSW 7 9 4 5 1018.2 1017.2 0.0
22/06:30am 11.7 7.9 -5.7 29 6.3 S 6 6 3 3 1018.2 1017.2 0.0
22/06:00am 11.8 7.7 -6.6 27 6.6 SSW 7 9 4 5 1017.8 1016.8 0.0
22/05:30am 11.7 7.2 -6.6 27 6.5 S 9 13 5 7 1017.5 1016.5 0.0
22/05:00am 10.7 5.5 -6.6 29 6.1 S 13 15 7 8 1017.0 1015.9 0.0
22/04:30am 10.7 6.2 -6.6 29 6.1 S 9 13 5 7 1017.0 1015.9 0.0
22/04:00am 11.2 6.3 -6.6 28 6.3 SSW 11 13 6 7 1016.9 1015.8 0.0
22/03:30am 11.7 6.5 -6.2 28 6.4 SSW 13 13 7 7 1017.0 1015.9 0.0
22/03:00am 13.3 8.1 -5.8 26 7.1 S 13 15 7 8 1017.2 1016.1 0.0
22/02:30am 14.4 9.2 -5.9 24 7.6 S 13 15 7 8 1017.5 1016.5 0.0
22/02:00am 15.4 10.3 -5.6 23 8.0 S 13 15 7 8 1017.7 1016.7 0.0
22/01:30am 15.6 10.5 -5.4 23 8.0 S 13 17 7 9 1018.0 1017.0 0.0
22/01:00am 16.3 10.8 -5.4 22 8.4 S 15 20 8 11 1018.1 1017.1 0.0
22/12:30am 18.1 11.9 -5.2 20 9.2 S 19 24 10 13 1018.3 1017.3 0.0
22/12:00am 18.6 12.3 -5.4 19 9.5 S 19 24 10 13 1018.7 1017.7 0.0
 
Date/Time
CST
Temp
°C
App
Temp
°C
Dew
Point
Rel
Hum
%
Delta-T
°C
Wind Press
QNH
hPa
Press
MSL
hPa
Rain
since 9 am
mm
Dir
 
Spd
km/h
Gust
km/h
Spd
kts
Gust
kts
21/11:30pm 19.0 13.2 -5.1 19 9.6 S 17 20 9 11 1018.9 1017.9 0.0
21/11:00pm 19.1 13.3 -5.0 19 9.7 S 17 20 9 11 1019.0 1018.0 0.0
21/10:30pm 20.3 14.5 -4.8 18 10.2 S 17 24 9 13 1019.1 1018.1 0.0
21/10:00pm 21.2 14.7 -5.6 16 10.8 S 20 26 11 14 1019.2 1018.2 0.0
21/09:30pm 21.7 15.3 -5.2 16 11.0 S 20 28 11 15 1019.2 1018.2 0.0
21/09:00pm 22.2 15.4 -5.6 15 11.4 S 22 28 12 15 1019.0 1018.0 0.0
21/08:30pm 23.0 16.2 -5.0 15 11.6 S 22 28 12 15 1018.7 1017.7 0.0
21/08:00pm 23.5 16.7 -5.5 14 12.0 S 22 30 12 16 1018.3 1017.3 0.0
21/07:30pm 24.2 16.9 -5.9 13 12.4 S 24 33 13 18 1017.9 1016.9 0.0
21/07:00pm 24.7 18.4 -5.5 13 12.6 S 19 26 10 14 1017.6 1016.6 0.0
21/06:30pm 25.6 19.1 -5.9 12 13.2 S 20 28 11 15 1017.1 1016.0 0.0
21/06:00pm 26.5 18.8 -6.3 11 13.8 S 26 33 14 18 1016.7 1015.6 0.0
21/05:30pm 27.4 19.8 -5.6 11 14.1 S 26 35 14 19 1016.4 1015.3 0.0
21/05:00pm 28.2 20.7 -5.0 11 14.5 S 26 37 14 20 1016.0 1014.9 0.0
21/04:30pm 28.9 21.8 -4.5 11 14.8 S 24 32 13 17 1016.1 1015.0 0.0
21/04:00pm 28.9 22.7 -3.3 12 14.6 SSE 20 33 11 18 1015.9 1014.8 0.0
21/03:30pm 29.6 23.1 -2.8 12 14.8 S 22 33 12 18 1015.9 1014.8 0.0
21/03:00pm 29.8 23.4 -1.5 13 14.7 S 22 39 12 21 1015.8 1014.7 0.0
21/02:30pm 29.0 21.9 -1.2 14 14.2 S 26 39 14 21 1016.0 1014.9 0.0
21/02:00pm 29.3 23.5 0.0 15 14.1 SSE 20 33 11 18 1016.4 1015.3 0.0
21/01:30pm 29.3 23.5 0.0 15 14.1 SSE 20 32 11 17 1016.9 1015.8 0.0
21/01:00pm 29.0 22.7 1.5 17 13.5 S 24 41 13 22 1017.3 1016.3 0.0
21/12:30pm 28.6 22.4 2.0 18 13.1 SSE 24 35 13 19 1017.8 1016.8 0.0
21/12:00pm 27.4 20.9 2.5 20 12.3 S 26 35 14 19 1018.5 1017.5 0.0
21/11:30am 27.1 21.1 3.6 22 11.8 S 24 33 13 18 1018.9 1017.9 0.0
21/11:00am 26.1 19.7 3.4 23 11.3 SSE 26 39 14 21 1019.9 1018.8 0.0
21/10:30am 25.4 19.1 4.0 25 10.7 SSE 26 35 14 19 1020.2 1019.1 0.0
21/10:00am 24.6 18.5 4.9 28 10.0 SSE 26 33 14 18 1020.5 1019.4 0.0
21/09:30am 23.6 17.3 4.0 28 9.7 SSE 26 35 14 19 1020.8 1019.7 0.0
21/09:00am 21.8 15.5 3.5 30 8.9 SSE 26 35 14 19 1020.8 1019.7 0.0
21/08:30am 21.0 14.7 3.7 32 8.4 SSE 26 33 14 18 1020.8 1019.7 0.0
21/08:00am 20.2 13.5 3.4 33 8.0 SSE 28 33 15 18 1020.7 1019.6 0.0
21/07:30am 19.5 13.4 2.8 33 7.8 S 24 33 13 18 1020.4 1019.3 0.0
21/07:00am 18.7 13.6 2.9 35 7.4 SSE 19 26 10 14 1019.9 1018.8 0.0
21/06:30am 18.0 13.6 2.7 36 7.1 S 15 19 8 10 1019.4 1018.4 0.0
21/06:00am 18.3 13.9 2.6 35 7.3 S 15 20 8 11 1019.1 1018.1 0.0
21/05:30am 18.8 14.0 2.6 34 7.5 SSE 17 22 9 12 1018.9 1017.9 0.0
21/05:00am 19.0 14.2 2.4 33 7.7 S 17 22 9 12 1018.6 1017.6 0.0
21/04:30am 19.8 14.6 2.2 31 8.2 SSE 19 26 10 14 1018.1 1017.1 0.0
21/04:00am 20.0 14.8 2.4 31 8.3 SSE 19 26 10 14 1017.9 1016.9 0.0
21/03:30am 20.5 13.9 2.3 30 8.5 SSE 26 35 14 19 1017.7 1016.7 0.0
21/03:00am 20.6 14.4 2.0 29 8.7 SSE 24 33 13 18 1017.9 1016.9 0.0
21/02:30am 20.8 14.7 0.6 26 9.2 SSE 22 33 12 18 1017.9 1016.9 0.0
21/02:00am 21.1 14.4 -1.4 22 9.9 SSE 24 32 13 17 1017.9 1016.9 0.0
21/01:30am 21.5 14.0 -1.7 21 10.1 SSE 28 41 15 22 1017.8 1016.8 0.0
21/01:00am 21.3 13.8 -1.3 22 10.0 SE 28 37 15 20 1017.6 1016.6 0.0
21/12:30am 21.9 14.4 -1.4 21 10.3 SSE 28 43 15 23 1017.2 1016.1 0.0
21/12:00am 22.4 15.0 -1.0 21 10.5 SSE 28 41 15 22 1016.9 1015.8 0.0
 
Date/Time
CST
Temp
°C
App
Temp
°C
Dew
Point
Rel
Hum
%
Delta-T
°C
Wind Press
QNH
hPa
Press
MSL
hPa
Rain
since 9 am
mm
Dir
 
Spd
km/h
Gust
km/h
Spd
kts
Gust
kts
20/11:30pm 23.1 15.6 -1.1 20 10.9 SSE 28 39 15 21 1016.5 1015.4 0.0
20/11:00pm 25.4 18.9 -2.2 16 12.4 SE 22 35 12 19 1015.8 1014.7 0.0
20/10:30pm 25.6 19.5 -2.1 16 12.4 SSE 20 32 11 17 1015.9 1014.8 0.0
20/10:00pm 26.3 20.3 -1.5 16 12.7 SSE 20 32 11 17 1015.5 1014.4 0.0
20/09:30pm 27.1 20.3 -1.7 15 13.2 SE 24 33 13 18 1015.3 1014.2 0.0
20/09:00pm 27.9 19.6 -2.0 14 13.7 SE 32 41 17 22 1014.9 1013.9 0.0
20/08:30pm 28.5 21.2 -2.6 13 14.2 SSE 26 35 14 19 1014.7 1013.7 0.0
20/08:00pm 29.2 22.4 -2.0 13 14.5 SSE 24 33 13 18 1014.3 1013.3 0.0
20/07:30pm 30.2 21.8 -2.3 12 15.1 S 32 41 17 22 1013.8 1012.8 0.0
20/07:18pm 30.5 21.7 -1.0 13 15.0 S 35 41 19 22 1013.5 1012.5 0.0
20/07:00pm 29.9 25.9 -2.6 12 15.0 SSW 9 11 5 6 1013.1 1012.0 0.0
20/06:30pm 31.8 27.6 -1.1 12 15.8 SSW 11 13 6 7 1012.9 1011.8 0.0
20/06:00pm 33.8 29.2 -0.7 11 16.9 SSW 13 20 7 11 1012.6 1011.5 0.0
20/05:30pm 35.1 31.8 -1.1 10 17.8 SW 6 13 3 7 1012.3 1011.2 0.0
20/05:00pm 35.6 33.1 -0.7 10 18.0 W 2 9 1 5 1012.1 1011.0 0.0
20/04:30pm 36.2 33.8 -0.2 10 18.2 SSW 2 7 1 4 1012.1 1011.0 0.0
20/04:00pm 36.1 32.9 -0.3 10 18.2 WSW 6 11 3 6 1012.1 1011.0 0.0
20/03:30pm 36.0 32.2 -0.4 10 18.2 WNW 9 19 5 10 1012.2 1011.1 0.0
20/03:00pm 35.7 32.3 -0.6 10 18.0 SSW 7 17 4 9 1012.2 1011.1 0.0
20/02:30pm 36.1 31.6 -0.3 10 18.2 NNE 13 19 7 10 1012.4 1011.3 0.0
20/02:00pm 35.6 31.0 -0.7 10 18.0 N 13 20 7 11 1012.7 1011.6 0.0
20/01:30pm 35.3 29.4 -0.9 10 17.8 N 20 32 11 17 1013.1 1012.0 0.0
20/01:00pm 34.5 28.5 -1.5 10 17.5 N 20 35 11 19 1013.6 1012.6 0.0
20/12:30pm 34.8 29.0 0.0 11 17.3 NNE 20 33 11 18 1014.2 1013.2 0.0
20/12:00pm 34.5 28.1 -1.5 10 17.5 NNE 22 33 12 18 1014.8 1013.8 0.0
20/11:30am 33.1 26.8 -1.3 11 16.6 NNE 22 32 12 17 1015.4 1014.3 0.0
20/11:00am 32.9 25.8 -1.4 11 16.5 NNE 26 37 14 20 1015.7 1014.6 0.0
20/10:30am 31.5 23.9 -2.5 11 15.9 NNE 28 39 15 21 1016.2 1015.1 0.0
20/10:00am 31.3 23.8 -1.5 12 15.6 NNE 28 43 15 23 1016.5 1015.4 0.0
20/09:30am 30.2 22.7 -1.2 13 14.8 NE 28 37 15 20 1016.7 1015.6 0.0
20/09:00am 29.1 22.6 -2.1 13 14.4 NE 22 39 12 21 1016.9 1015.8 0.0
20/08:30am 28.3 21.1 -1.7 14 13.9 NE 26 35 14 19 1017.0 1015.9 0.0
20/08:00am 26.4 19.5 -2.3 15 12.9 ENE 24 35 13 19 1016.9 1015.8 0.0
20/07:30am 24.8 18.9 -1.1 18 11.8 ENE 20 28 11 15 1016.9 1015.8 0.0
20/07:00am 23.1 17.1 -1.8 19 11.0 ENE 20 28 11 15 1016.5 1015.4 0.0
20/06:30am 21.7 16.2 -2.2 20 10.4 ENE 17 26 9 14 1016.2 1015.1 0.0
20/06:00am 21.3 16.2 -1.9 21 10.1 ENE 15 20 8 11 1016.2 1015.1 0.0
20/05:30am 21.3 16.5 -2.5 20 10.2 ENE 13 19 7 10 1015.9 1014.8 0.0
20/05:00am 21.0 16.3 -2.1 21 10.0 NE 13 17 7 9 1015.5 1014.4 0.0
20/04:30am 21.9 17.3 -1.4 21 10.3 ENE 13 20 7 11 1015.6 1014.5 0.0
20/04:00am 20.9 16.7 -1.0 23 9.7 ENE 11 15 6 8 1015.6 1014.5 0.0
20/03:30am 20.6 15.9 -1.8 22 9.7 E 13 15 7 8 1015.7 1014.6 0.0
20/03:00am 21.1 16.8 -1.4 22 9.9 E 11 13 6 7 1015.8 1014.7 0.0
20/02:30am 20.7 16.1 -1.2 23 9.6 E 13 15 7 8 1016.0 1014.9 0.0
20/02:00am 21.4 16.8 -1.2 22 10.0 E 13 15 7 8 1016.0 1014.9 0.0
20/01:30am 21.8 16.9 -0.8 22 10.1 E 15 17 8 9 1016.2 1015.1 0.0
20/01:00am 21.2 16.6 -1.3 22 9.9 E 13 15 7 8 1016.5 1015.4 0.0
20/12:30am 21.8 17.5 -1.5 21 10.3 E 11 13 6 7 1016.8 1015.7 0.0
20/12:00am 22.2 18.4 -1.1 21 10.4 E 9 13 5 7 1017.0 1015.9 0.0
 
Date/Time
CST
Temp
°C
App
Temp
°C
Dew
Point
Rel
Hum
%
Delta-T
°C
Wind Press
QNH
hPa
Press
MSL
hPa
Rain
since 9 am
mm
Dir
 
Spd
km/h
Gust
km/h
Spd
kts
Gust
kts
19/11:30pm 22.8 18.5 -1.3 20 10.7 ESE 11 13 6 7 1017.3 1016.3 0.0
19/11:00pm 23.3 19.4 -1.6 19 11.1 ESE 9 11 5 6 1017.1 1016.0 0.0
19/10:30pm 24.2 19.9 -1.6 18 11.6 ESE 11 13 6 7 1017.1 1016.0 0.0
19/10:00pm 25.3 20.6 -1.5 17 12.2 SE 13 17 7 9 1017.0 1015.9 0.0
19/09:30pm 25.1 20.8 -1.6 17 12.1 SE 11 13 6 7 1017.1 1016.0 0.0
19/09:00pm 26.0 21.3 -1.7 16 12.6 SE 13 15 7 8 1017.0 1015.9 0.0
19/08:30pm 26.1 21.8 -1.7 16 12.6 SE 11 13 6 7 1016.8 1015.7 0.0
19/08:00pm 26.5 22.0 -3.1 14 13.2 ESE 11 13 6 7 1016.6 1015.5 0.0
19/07:30pm 27.4 23.4 -2.4 14 13.5 ESE 9 11 5 6 1016.2 1015.1 0.0

Other Formats:

Comma delimited format used in spreadsheet applications
http://www.bom.gov.au/fwo/IDD60801/IDD60801.94255.axf

JavaScript Object Notation format (JSON) in row-major order
http://www.bom.gov.au/fwo/IDD60801/IDD60801.94255.json